Terminal Aerodrome Forecast
Issued by NWS

Home | Current Version | Previous Version | Text Only | Print | Product List | Glossary On
Versions: 1 2 3 4 5 6 7 8 9 10 11 12 13 14 15 16 17 18
000
FTUS43 KSGF 020500
TAFJLN
TAF
KJLN 020520Z 0206/0306 07006KT P6SM SCT030
      TEMPO 0207/0210 BKN025
     FM021000 10005KT 5SM BR BKN025
     FM021500 15006KT P6SM BKN040
     FM021800 16006KT P6SM SCT050
     FM030000 15006KT P6SM SKC=

USA.gov is the U.S. government's official web portal to all federal, state and local government web resources and services.